sensor_id;sensor_type;location;lat;lon;timestamp;P1;durP1;ratioP1;P2;durP2;ratioP2
77542;SDS011;66669;52.100;5.104;2023-02-28T00:00:28;1.75;;;0.80;;
77542;SDS011;66669;52.100;5.104;2023-02-28T00:02:53;1.98;;;1.00;;
77542;SDS011;66669;52.100;5.104;2023-02-28T00:05:21;2.75;;;0.55;;
77542;SDS011;66669;52.100;5.104;2023-02-28T00:07:48;2.88;;;0.80;;
77542;SDS011;66669;52.100;5.104;2023-02-28T00:10:16;1.77;;;0.90;;
77542;SDS011;66669;52.100;5.104;2023-02-28T00:12:48;1.30;;;0.60;;
77542;SDS011;66669;52.100;5.104;2023-02-28T00:15:14;1.48;;;0.60;;
77542;SDS011;66669;52.100;5.104;2023-02-28T00:17:39;1.95;;;0.77;;
77542;SDS011;66669;52.100;5.104;2023-02-28T00:20:05;2.30;;;0.80;;
77542;SDS011;66669;52.100;5.104;2023-02-28T00:22:35;3.10;;;0.80;;
77542;SDS011;66669;52.100;5.104;2023-02-28T00:25:01;1.55;;;0.60;;
77542;SDS011;66669;52.100;5.104;2023-02-28T00:27:27;2.00;;;0.70;;
77542;SDS011;66669;52.100;5.104;2023-02-28T00:29:52;1.95;;;0.80;;
77542;SDS011;66669;52.100;5.104;2023-02-28T00:32:19;2.33;;;0.70;;
77542;SDS011;66669;52.100;5.104;2023-02-28T00:34:44;1.38;;;0.55;;
77542;SDS011;66669;52.100;5.104;2023-02-28T00:37:10;1.45;;;0.63;;
77542;SDS011;66669;52.100;5.104;2023-02-28T00:39:39;1.48;;;0.60;;
77542;SDS011;66669;52.100;5.104;2023-02-28T00:42:05;1.95;;;0.80;;
77542;SDS011;66669;52.100;5.104;2023-02-28T00:44:32;1.27;;;0.60;;
77542;SDS011;66669;52.100;5.104;2023-02-28T00:46:57;2.00;;;0.70;;
77542;SDS011;66669;52.100;5.104;2023-02-28T00:49:24;1.90;;;0.60;;
77542;SDS011;66669;52.100;5.104;2023-02-28T00:51:50;1.23;;;0.50;;
77542;SDS011;66669;52.100;5.104;2023-02-28T00:54:16;1.80;;;0.60;;
77542;SDS011;66669;52.100;5.104;2023-02-28T00:56:42;1.45;;;0.50;;
77542;SDS011;66669;52.100;5.104;2023-02-28T00:59:07;1.48;;;0.52;;
77542;SDS011;66669;52.100;5.104;2023-02-28T01:01:33;1.50;;;0.60;;
77542;SDS011;66669;52.100;5.104;2023-02-28T01:03:59;2.17;;;0.63;;
77542;SDS011;66669;52.100;5.104;2023-02-28T01:06:24;0.85;;;0.40;;
77542;SDS011;66669;52.100;5.104;2023-02-28T01:08:49;1.95;;;0.50;;
77542;SDS011;66669;52.100;5.104;2023-02-28T01:11:18;1.40;;;0.50;;
77542;SDS011;66669;52.100;5.104;2023-02-28T01:13:45;1.10;;;0.60;;
77542;SDS011;66669;52.100;5.104;2023-02-28T01:16:11;3.15;;;0.70;;
77542;SDS011;66669;52.100;5.104;2023-02-28T01:18:38;1.30;;;0.50;;
77542;SDS011;66669;52.100;5.104;2023-02-28T01:21:07;3.25;;;0.50;;
77542;SDS011;66669;52.100;5.104;2023-02-28T01:23:34;1.83;;;0.70;;
77542;SDS011;66669;52.100;5.104;2023-02-28T01:26:07;1.50;;;0.60;;
77542;SDS011;66669;52.100;5.104;2023-02-28T01:28:37;1.83;;;0.52;;
77542;SDS011;66669;52.100;5.104;2023-02-28T01:31:02;1.30;;;0.47;;
77542;SDS011;66669;52.100;5.104;2023-02-28T01:33:28;1.30;;;0.57;;
77542;SDS011;66669;52.100;5.104;2023-02-28T01:36:07;1.15;;;0.50;;
77542;SDS011;66669;52.100;5.104;2023-02-28T01:38:35;1.08;;;0.40;;
77542;SDS011;66669;52.100;5.104;2023-02-28T01:41:00;1.27;;;0.60;;
77542;SDS011;66669;52.100;5.104;2023-02-28T01:43:27;1.92;;;0.50;;
77542;SDS011;66669;52.100;5.104;2023-02-28T01:46:13;2.78;;;0.50;;
77542;SDS011;66669;52.100;5.104;2023-02-28T01:49:01;1.88;;;0.50;;
77542;SDS011;66669;52.100;5.104;2023-02-28T01:51:44;1.45;;;0.50;;
77542;SDS011;66669;52.100;5.104;2023-02-28T01:54:17;1.52;;;0.50;;
77542;SDS011;66669;52.100;5.104;2023-02-28T01:56:57;1.27;;;0.60;;
77542;SDS011;66669;52.100;5.104;2023-02-28T01:59:31;1.17;;;0.50;;
77542;SDS011;66669;52.100;5.104;2023-02-28T02:02:00;1.27;;;0.50;;
77542;SDS011;66669;52.100;5.104;2023-02-28T02:04:27;1.60;;;0.50;;
77542;SDS011;66669;52.100;5.104;2023-02-28T02:06:58;1.58;;;0.57;;
77542;SDS011;66669;52.100;5.104;2023-02-28T02:09:24;0.90;;;0.40;;
77542;SDS011;66669;52.100;5.104;2023-02-28T02:11:49;1.77;;;0.50;;
77542;SDS011;66669;52.100;5.104;2023-02-28T02:17:19;3.88;;;0.70;;
77542;SDS011;66669;52.100;5.104;2023-02-28T02:26:16;1.90;;;0.82;;
77542;SDS011;66669;52.100;5.104;2023-02-28T02:31:42;1.85;;;0.80;;
77542;SDS011;66669;52.100;5.104;2023-02-28T02:36:51;2.95;;;0.90;;
77542;SDS011;66669;52.100;5.104;2023-02-28T02:39:30;2.40;;;0.90;;
77542;SDS011;66669;52.100;5.104;2023-02-28T02:42:02;1.15;;;0.68;;
77542;SDS011;66669;52.100;5.104;2023-02-28T02:44:53;2.42;;;0.90;;
77542;SDS011;66669;52.100;5.104;2023-02-28T02:47:25;1.52;;;0.80;;
77542;SDS011;66669;52.100;5.104;2023-02-28T02:49:55;1.77;;;1.00;;
77542;SDS011;66669;52.100;5.104;2023-02-28T02:52:27;1.95;;;0.70;;
77542;SDS011;66669;52.100;5.104;2023-02-28T02:54:59;2.22;;;0.90;;
77542;SDS011;66669;52.100;5.104;2023-02-28T02:57:32;1.70;;;0.83;;
77542;SDS011;66669;52.100;5.104;2023-02-28T03:00:04;1.33;;;0.80;;
77542;SDS011;66669;52.100;5.104;2023-02-28T03:02:33;1.77;;;0.85;;
77542;SDS011;66669;52.100;5.104;2023-02-28T03:07:33;2.85;;;0.85;;
77542;SDS011;66669;52.100;5.104;2023-02-28T03:09:58;2.35;;;0.70;;
77542;SDS011;66669;52.100;5.104;2023-02-28T03:12:27;1.83;;;0.90;;
77542;SDS011;66669;52.100;5.104;2023-02-28T03:17:47;1.60;;;0.80;;
77542;SDS011;66669;52.100;5.104;2023-02-28T03:20:36;2.00;;;0.73;;
77542;SDS011;66669;52.100;5.104;2023-02-28T03:23:15;2.45;;;0.80;;
77542;SDS011;66669;52.100;5.104;2023-02-28T03:28:28;4.32;;;1.00;;
77542;SDS011;66669;52.100;5.104;2023-02-28T03:31:35;2.97;;;1.17;;
77542;SDS011;66669;52.100;5.104;2023-02-28T03:36:41;2.33;;;1.05;;
77542;SDS011;66669;52.100;5.104;2023-02-28T03:39:27;1.85;;;0.70;;
77542;SDS011;66669;52.100;5.104;2023-02-28T03:41:59;1.42;;;0.70;;
77542;SDS011;66669;52.100;5.104;2023-02-28T03:44:32;2.78;;;0.98;;
77542;SDS011;66669;52.100;5.104;2023-02-28T03:47:08;3.75;;;0.90;;
77542;SDS011;66669;52.100;5.104;2023-02-28T03:49:42;1.60;;;0.75;;
77542;SDS011;66669;52.100;5.104;2023-02-28T03:52:12;2.20;;;1.00;;
77542;SDS011;66669;52.100;5.104;2023-02-28T03:54:43;2.53;;;1.10;;
77542;SDS011;66669;52.100;5.104;2023-02-28T03:57:27;2.47;;;0.93;;
77542;SDS011;66669;52.100;5.104;2023-02-28T04:00:12;2.30;;;0.95;;
77542;SDS011;66669;52.100;5.104;2023-02-28T04:02:44;2.70;;;0.90;;
77542;SDS011;66669;52.100;5.104;2023-02-28T04:05:10;2.17;;;1.02;;
77542;SDS011;66669;52.100;5.104;2023-02-28T04:07:36;2.50;;;1.10;;
77542;SDS011;66669;52.100;5.104;2023-02-28T04:10:02;1.67;;;0.60;;
77542;SDS011;66669;52.100;5.104;2023-02-28T04:12:29;2.78;;;1.00;;
77542;SDS011;66669;52.100;5.104;2023-02-28T04:14:54;2.72;;;1.20;;
77542;SDS011;66669;52.100;5.104;2023-02-28T04:17:20;2.10;;;0.80;;
77542;SDS011;66669;52.100;5.104;2023-02-28T04:19:45;2.42;;;1.08;;
77542;SDS011;66669;52.100;5.104;2023-02-28T04:22:11;2.60;;;1.00;;
77542;SDS011;66669;52.100;5.104;2023-02-28T04:24:36;2.63;;;0.90;;
77542;SDS011;66669;52.100;5.104;2023-02-28T04:27:01;1.83;;;1.00;;
77542;SDS011;66669;52.100;5.104;2023-02-28T04:29:31;2.15;;;1.00;;
77542;SDS011;66669;52.100;5.104;2023-02-28T04:31:57;2.20;;;1.00;;
77542;SDS011;66669;52.100;5.104;2023-02-28T04:34:26;1.50;;;1.02;;
77542;SDS011;66669;52.100;5.104;2023-02-28T04:36:54;3.67;;;1.17;;
77542;SDS011;66669;52.100;5.104;2023-02-28T04:39:20;2.25;;;1.05;;
77542;SDS011;66669;52.100;5.104;2023-02-28T04:41:47;2.53;;;1.10;;
77542;SDS011;66669;52.100;5.104;2023-02-28T04:44:13;2.72;;;1.02;;
77542;SDS011;66669;52.100;5.104;2023-02-28T04:46:38;2.67;;;1.00;;
77542;SDS011;66669;52.100;5.104;2023-02-28T04:49:04;3.08;;;1.10;;
77542;SDS011;66669;52.100;5.104;2023-02-28T04:51:29;3.30;;;1.30;;
77542;SDS011;66669;52.100;5.104;2023-02-28T04:53:55;1.90;;;1.00;;
77542;SDS011;66669;52.100;5.104;2023-02-28T04:56:20;2.08;;;0.98;;
77542;SDS011;66669;52.100;5.104;2023-02-28T04:58:46;3.65;;;1.30;;
77542;SDS011;66669;52.100;5.104;2023-02-28T05:03:49;1.73;;;0.70;;
77542;SDS011;66669;52.100;5.104;2023-02-28T05:06:16;2.58;;;0.80;;
77542;SDS011;66669;52.100;5.104;2023-02-28T05:08:42;2.25;;;0.68;;
77542;SDS011;66669;52.100;5.104;2023-02-28T05:11:30;1.25;;;0.60;;
77542;SDS011;66669;52.100;5.104;2023-02-28T05:13:59;2.60;;;0.70;;
77542;SDS011;66669;52.100;5.104;2023-02-28T05:16:29;2.05;;;0.73;;
77542;SDS011;66669;52.100;5.104;2023-02-28T05:18:56;1.55;;;0.77;;
77542;SDS011;66669;52.100;5.104;2023-02-28T05:23:52;2.15;;;1.13;;
77542;SDS011;66669;52.100;5.104;2023-02-28T05:26:18;1.25;;;0.70;;
77542;SDS011;66669;52.100;5.104;2023-02-28T05:28:44;2.20;;;1.10;;
77542;SDS011;66669;52.100;5.104;2023-02-28T05:31:12;1.83;;;0.80;;
77542;SDS011;66669;52.100;5.104;2023-02-28T05:33:38;1.95;;;1.00;;
77542;SDS011;66669;52.100;5.104;2023-02-28T05:36:04;1.70;;;0.65;;
77542;SDS011;66669;52.100;5.104;2023-02-28T05:38:30;1.70;;;0.60;;
77542;SDS011;66669;52.100;5.104;2023-02-28T05:40:56;1.70;;;0.73;;
77542;SDS011;66669;52.100;5.104;2023-02-28T05:43:21;1.35;;;0.60;;
77542;SDS011;66669;52.100;5.104;2023-02-28T05:45:47;1.50;;;0.60;;
77542;SDS011;66669;52.100;5.104;2023-02-28T05:48:12;3.40;;;1.08;;
77542;SDS011;66669;52.100;5.104;2023-02-28T05:50:37;1.92;;;0.82;;
77542;SDS011;66669;52.100;5.104;2023-02-28T05:53:03;2.72;;;0.90;;
77542;SDS011;66669;52.100;5.104;2023-02-28T05:55:28;1.10;;;0.52;;
77542;SDS011;66669;52.100;5.104;2023-02-28T05:57:54;1.30;;;0.63;;
77542;SDS011;66669;52.100;5.104;2023-02-28T06:00:20;1.40;;;0.73;;
77542;SDS011;66669;52.100;5.104;2023-02-28T06:02:45;1.88;;;0.82;;
77542;SDS011;66669;52.100;5.104;2023-02-28T06:05:14;1.98;;;0.60;;
77542;SDS011;66669;52.100;5.104;2023-02-28T06:07:42;1.58;;;0.80;;
77542;SDS011;66669;52.100;5.104;2023-02-28T06:10:09;1.58;;;0.70;;
77542;SDS011;66669;52.100;5.104;2023-02-28T06:12:36;1.48;;;0.63;;
77542;SDS011;66669;52.100;5.104;2023-02-28T06:15:02;1.50;;;0.73;;
77542;SDS011;66669;52.100;5.104;2023-02-28T06:17:28;1.45;;;0.80;;
77542;SDS011;66669;52.100;5.104;2023-02-28T06:19:56;1.13;;;0.50;;
77542;SDS011;66669;52.100;5.104;2023-02-28T06:22:22;1.17;;;0.40;;
77542;SDS011;66669;52.100;5.104;2023-02-28T06:24:47;1.20;;;0.60;;
77542;SDS011;66669;52.100;5.104;2023-02-28T06:27:13;0.95;;;0.60;;
77542;SDS011;66669;52.100;5.104;2023-02-28T06:29:38;1.55;;;0.60;;
77542;SDS011;66669;52.100;5.104;2023-02-28T06:32:07;1.58;;;0.75;;
77542;SDS011;66669;52.100;5.104;2023-02-28T06:34:32;1.33;;;0.77;;
77542;SDS011;66669;52.100;5.104;2023-02-28T06:36:59;1.33;;;0.73;;
77542;SDS011;66669;52.100;5.104;2023-02-28T06:39:27;2.05;;;0.98;;
77542;SDS011;66669;52.100;5.104;2023-02-28T06:41:53;2.42;;;1.00;;
77542;SDS011;66669;52.100;5.104;2023-02-28T06:44:18;1.95;;;0.90;;
77542;SDS011;66669;52.100;5.104;2023-02-28T06:46:44;1.88;;;1.02;;
77542;SDS011;66669;52.100;5.104;2023-02-28T06:49:10;1.83;;;0.90;;
77542;SDS011;66669;52.100;5.104;2023-02-28T06:51:37;2.58;;;0.85;;
77542;SDS011;66669;52.100;5.104;2023-02-28T06:54:04;1.38;;;0.90;;
77542;SDS011;66669;52.100;5.104;2023-02-28T06:56:30;1.77;;;0.90;;
77542;SDS011;66669;52.100;5.104;2023-02-28T06:58:55;2.00;;;1.00;;
77542;SDS011;66669;52.100;5.104;2023-02-28T07:01:21;1.67;;;1.05;;
77542;SDS011;66669;52.100;5.104;2023-02-28T07:03:49;1.88;;;1.20;;
77542;SDS011;66669;52.100;5.104;2023-02-28T07:06:17;2.55;;;1.25;;
77542;SDS011;66669;52.100;5.104;2023-02-28T07:08:44;2.08;;;1.20;;
77542;SDS011;66669;52.100;5.104;2023-02-28T07:11:09;2.33;;;1.20;;
77542;SDS011;66669;52.100;5.104;2023-02-28T07:13:35;3.28;;;1.00;;
77542;SDS011;66669;52.100;5.104;2023-02-28T07:16:03;2.20;;;1.20;;
77542;SDS011;66669;52.100;5.104;2023-02-28T07:20:56;2.42;;;1.27;;
77542;SDS011;66669;52.100;5.104;2023-02-28T07:23:21;2.72;;;1.02;;
77542;SDS011;66669;52.100;5.104;2023-02-28T07:25:47;3.83;;;1.50;;
77542;SDS011;66669;52.100;5.104;2023-02-28T07:28:14;5.90;;;1.45;;
77542;SDS011;66669;52.100;5.104;2023-02-28T07:30:39;2.38;;;1.20;;
77542;SDS011;66669;52.100;5.104;2023-02-28T07:33:05;3.28;;;1.40;;
77542;SDS011;66669;52.100;5.104;2023-02-28T07:35:31;3.22;;;1.10;;
77542;SDS011;66669;52.100;5.104;2023-02-28T07:37:59;4.25;;;1.55;;
77542;SDS011;66669;52.100;5.104;2023-02-28T07:40:25;2.80;;;1.30;;
77542;SDS011;66669;52.100;5.104;2023-02-28T07:42:51;4.00;;;1.63;;
77542;SDS011;66669;52.100;5.104;2023-02-28T07:45:16;2.42;;;1.40;;
77542;SDS011;66669;52.100;5.104;2023-02-28T07:47:42;3.00;;;1.52;;
77542;SDS011;66669;52.100;5.104;2023-02-28T07:50:09;4.05;;;1.13;;
77542;SDS011;66669;52.100;5.104;2023-02-28T07:52:37;2.30;;;1.05;;
77542;SDS011;66669;52.100;5.104;2023-02-28T07:55:03;2.58;;;1.25;;
77542;SDS011;66669;52.100;5.104;2023-02-28T07:57:30;4.05;;;1.45;;
77542;SDS011;66669;52.100;5.104;2023-02-28T07:59:55;3.90;;;1.50;;
77542;SDS011;66669;52.100;5.104;2023-02-28T08:02:20;2.05;;;1.20;;
77542;SDS011;66669;52.100;5.104;2023-02-28T08:04:46;4.05;;;1.13;;
77542;SDS011;66669;52.100;5.104;2023-02-28T08:07:13;4.20;;;1.58;;
77542;SDS011;66669;52.100;5.104;2023-02-28T08:09:41;2.47;;;1.40;;
77542;SDS011;66669;52.100;5.104;2023-02-28T08:12:08;2.97;;;1.40;;
77542;SDS011;66669;52.100;5.104;2023-02-28T08:14:34;3.40;;;1.40;;
77542;SDS011;66669;52.100;5.104;2023-02-28T08:17:00;2.75;;;1.35;;
77542;SDS011;66669;52.100;5.104;2023-02-28T08:19:26;3.67;;;1.23;;
77542;SDS011;66669;52.100;5.104;2023-02-28T08:21:52;2.65;;;1.10;;
77542;SDS011;66669;52.100;5.104;2023-02-28T08:24:17;3.05;;;1.20;;
77542;SDS011;66669;52.100;5.104;2023-02-28T08:26:43;3.42;;;1.40;;
77542;SDS011;66669;52.100;5.104;2023-02-28T08:29:08;2.47;;;1.30;;
77542;SDS011;66669;52.100;5.104;2023-02-28T08:31:33;2.10;;;1.20;;
77542;SDS011;66669;52.100;5.104;2023-02-28T08:34:00;1.67;;;1.00;;
77542;SDS011;66669;52.100;5.104;2023-02-28T08:36:30;2.28;;;1.08;;
77542;SDS011;66669;52.100;5.104;2023-02-28T08:38:56;2.20;;;0.95;;
77542;SDS011;66669;52.100;5.104;2023-02-28T08:41:22;2.33;;;0.80;;
77542;SDS011;66669;52.100;5.104;2023-02-28T08:43:47;1.17;;;0.70;;
77542;SDS011;66669;52.100;5.104;2023-02-28T08:46:12;7.32;;;1.00;;
77542;SDS011;66669;52.100;5.104;2023-02-28T08:48:38;2.05;;;1.00;;
77542;SDS011;66669;52.100;5.104;2023-02-28T08:51:05;4.22;;;0.80;;
77542;SDS011;66669;52.100;5.104;2023-02-28T08:53:34;1.75;;;0.80;;
77542;SDS011;66669;52.100;5.104;2023-02-28T08:56:05;2.70;;;0.95;;
77542;SDS011;66669;52.100;5.104;2023-02-28T08:58:35;2.50;;;0.77;;
77542;SDS011;66669;52.100;5.104;2023-02-28T09:01:06;2.22;;;0.68;;
77542;SDS011;66669;52.100;5.104;2023-02-28T09:03:36;1.48;;;0.60;;
77542;SDS011;66669;52.100;5.104;2023-02-28T09:06:03;1.38;;;0.90;;
77542;SDS011;66669;52.100;5.104;2023-02-28T09:08:29;1.13;;;0.50;;
77542;SDS011;66669;52.100;5.104;2023-02-28T09:10:56;2.83;;;0.80;;
77542;SDS011;66669;52.100;5.104;2023-02-28T09:13:23;4.03;;;0.90;;
77542;SDS011;66669;52.100;5.104;2023-02-28T09:15:49;2.42;;;0.80;;
77542;SDS011;66669;52.100;5.104;2023-02-28T09:18:15;5.15;;;0.82;;
77542;SDS011;66669;52.100;5.104;2023-02-28T09:20:41;2.00;;;0.60;;
77542;SDS011;66669;52.100;5.104;2023-02-28T09:23:08;3.38;;;0.60;;
77542;SDS011;66669;52.100;5.104;2023-02-28T09:25:34;6.38;;;0.70;;
77542;SDS011;66669;52.100;5.104;2023-02-28T09:28:00;4.32;;;0.70;;
77542;SDS011;66669;52.100;5.104;2023-02-28T09:30:26;3.80;;;0.70;;
77542;SDS011;66669;52.100;5.104;2023-02-28T09:32:52;3.40;;;0.80;;
77542;SDS011;66669;52.100;5.104;2023-02-28T09:35:19;1.92;;;0.80;;
77542;SDS011;66669;52.100;5.104;2023-02-28T09:37:45;4.72;;;1.13;;
77542;SDS011;66669;52.100;5.104;2023-02-28T09:40:14;1.05;;;0.47;;
77542;SDS011;66669;52.100;5.104;2023-02-28T09:42:44;3.03;;;0.70;;
77542;SDS011;66669;52.100;5.104;2023-02-28T09:45:23;1.77;;;0.70;;
77542;SDS011;66669;52.100;5.104;2023-02-28T09:47:54;2.45;;;0.52;;
77542;SDS011;66669;52.100;5.104;2023-02-28T09:53:02;1.80;;;0.40;;
77542;SDS011;66669;52.100;5.104;2023-02-28T09:55:39;2.80;;;0.90;;
77542;SDS011;66669;52.100;5.104;2023-02-28T10:00:58;3.33;;;0.68;;
77542;SDS011;66669;52.100;5.104;2023-02-28T10:03:30;1.45;;;0.38;;
77542;SDS011;66669;52.100;5.104;2023-02-28T10:06:06;1.05;;;0.40;;
77542;SDS011;66669;52.100;5.104;2023-02-28T10:08:38;1.92;;;0.50;;
77542;SDS011;66669;52.100;5.104;2023-02-28T10:11:11;3.13;;;0.50;;
77542;SDS011;66669;52.100;5.104;2023-02-28T10:16:46;1.05;;;0.40;;
77542;SDS011;66669;52.100;5.104;2023-02-28T10:19:38;0.90;;;0.50;;
77542;SDS011;66669;52.100;5.104;2023-02-28T10:22:14;1.38;;;0.40;;
77542;SDS011;66669;52.100;5.104;2023-02-28T10:24:47;0.82;;;0.40;;
77542;SDS011;66669;52.100;5.104;2023-02-28T10:29:45;0.73;;;0.30;;
77542;SDS011;66669;52.100;5.104;2023-02-28T10:32:14;0.93;;;0.40;;
77542;SDS011;66669;52.100;5.104;2023-02-28T10:34:42;0.90;;;0.40;;
77542;SDS011;66669;52.100;5.104;2023-02-28T10:37:08;1.42;;;0.40;;
77542;SDS011;66669;52.100;5.104;2023-02-28T10:39:39;1.20;;;0.60;;
77542;SDS011;66669;52.100;5.104;2023-02-28T10:42:28;1.25;;;0.40;;
77542;SDS011;66669;52.100;5.104;2023-02-28T10:45:05;1.15;;;0.38;;
77542;SDS011;66669;52.100;5.104;2023-02-28T10:47:31;0.70;;;0.30;;
77542;SDS011;66669;52.100;5.104;2023-02-28T10:49:59;0.82;;;0.50;;
77542;SDS011;66669;52.100;5.104;2023-02-28T10:52:32;1.20;;;0.60;;
77542;SDS011;66669;52.100;5.104;2023-02-28T11:00:25;1.80;;;0.52;;
77542;SDS011;66669;52.100;5.104;2023-02-28T11:02:58;1.10;;;0.47;;
77542;SDS011;66669;52.100;5.104;2023-02-28T11:05:34;0.50;;;0.30;;
77542;SDS011;66669;52.100;5.104;2023-02-28T11:10:43;0.65;;;0.30;;
77542;SDS011;66669;52.100;5.104;2023-02-28T11:13:17;0.63;;;0.20;;
77542;SDS011;66669;52.100;5.104;2023-02-28T11:15:51;0.75;;;0.35;;
77542;SDS011;66669;52.100;5.104;2023-02-28T11:20:53;1.52;;;0.50;;
77542;SDS011;66669;52.100;5.104;2023-02-28T11:23:22;1.15;;;0.30;;
77542;SDS011;66669;52.100;5.104;2023-02-28T11:25:52;0.50;;;0.30;;
77542;SDS011;66669;52.100;5.104;2023-02-28T11:28:27;1.00;;;0.40;;
77542;SDS011;66669;52.100;5.104;2023-02-28T11:36:14;0.60;;;0.30;;
77542;SDS011;66669;52.100;5.104;2023-02-28T11:38:42;0.80;;;0.35;;
77542;SDS011;66669;52.100;5.104;2023-02-28T11:44:15;0.35;;;0.25;;
77542;SDS011;66669;52.100;5.104;2023-02-28T11:46:53;0.70;;;0.30;;
77542;SDS011;66669;52.100;5.104;2023-02-28T12:05:33;0.65;;;0.32;;
77542;SDS011;66669;52.100;5.104;2023-02-28T12:13:54;0.38;;;0.30;;
77542;SDS011;66669;52.100;5.104;2023-02-28T12:19:50;1.05;;;0.40;;
77542;SDS011;66669;52.100;5.104;2023-02-28T12:22:20;1.48;;;0.30;;
77542;SDS011;66669;52.100;5.104;2023-02-28T12:27:31;1.77;;;0.47;;
77542;SDS011;66669;52.100;5.104;2023-02-28T12:30:03;1.10;;;0.50;;
77542;SDS011;66669;52.100;5.104;2023-02-28T12:32:41;1.33;;;0.52;;
77542;SDS011;66669;52.100;5.104;2023-02-28T12:35:14;1.52;;;0.43;;
77542;SDS011;66669;52.100;5.104;2023-02-28T12:37:45;1.38;;;0.40;;
77542;SDS011;66669;52.100;5.104;2023-02-28T12:40:20;1.10;;;0.30;;
77542;SDS011;66669;52.100;5.104;2023-02-28T12:42:58;0.80;;;0.40;;
77542;SDS011;66669;52.100;5.104;2023-02-28T12:48:42;3.47;;;0.50;;
77542;SDS011;66669;52.100;5.104;2023-02-28T12:51:11;1.75;;;0.38;;
77542;SDS011;66669;52.100;5.104;2023-02-28T12:59:54;2.92;;;0.50;;
77542;SDS011;66669;52.100;5.104;2023-02-28T13:10:39;4.50;;;0.40;;
77542;SDS011;66669;52.100;5.104;2023-02-28T13:13:28;2.00;;;0.30;;
77542;SDS011;66669;52.100;5.104;2023-02-28T13:18:46;1.33;;;0.40;;
77542;SDS011;66669;52.100;5.104;2023-02-28T13:34:35;2.08;;;0.80;;
77542;SDS011;66669;52.100;5.104;2023-02-28T13:39:54;2.08;;;0.82;;
77542;SDS011;66669;52.100;5.104;2023-02-28T13:42:36;3.15;;;0.73;;
77542;SDS011;66669;52.100;5.104;2023-02-28T13:47:41;2.75;;;0.80;;
77542;SDS011;66669;52.100;5.104;2023-02-28T14:04:21;7.43;;;1.15;;
77542;SDS011;66669;52.100;5.104;2023-02-28T14:06:48;8.10;;;1.65;;
77542;SDS011;66669;52.100;5.104;2023-02-28T14:09:19;8.02;;;1.52;;
77542;SDS011;66669;52.100;5.104;2023-02-28T14:11:50;6.00;;;1.30;;
77542;SDS011;66669;52.100;5.104;2023-02-28T14:16:59;4.75;;;1.20;;
77542;SDS011;66669;52.100;5.104;2023-02-28T14:19:27;4.35;;;1.00;;
77542;SDS011;66669;52.100;5.104;2023-02-28T14:27:29;7.55;;;1.02;;
77542;SDS011;66669;52.100;5.104;2023-02-28T14:33:01;2.10;;;0.98;;
77542;SDS011;66669;52.100;5.104;2023-02-28T14:35:44;2.80;;;0.73;;
77542;SDS011;66669;52.100;5.104;2023-02-28T14:38:36;3.08;;;0.90;;
77542;SDS011;66669;52.100;5.104;2023-02-28T14:41:12;1.90;;;0.70;;
77542;SDS011;66669;52.100;5.104;2023-02-28T14:43:49;2.20;;;0.80;;
77542;SDS011;66669;52.100;5.104;2023-02-28T14:46:17;1.42;;;0.57;;
77542;SDS011;66669;52.100;5.104;2023-02-28T14:48:47;2.45;;;0.77;;
77542;SDS011;66669;52.100;5.104;2023-02-28T14:51:18;1.45;;;0.60;;
77542;SDS011;66669;52.100;5.104;2023-02-28T14:53:47;1.65;;;0.82;;
77542;SDS011;66669;52.100;5.104;2023-02-28T14:56:28;1.27;;;0.50;;
77542;SDS011;66669;52.100;5.104;2023-02-28T14:59:05;1.08;;;0.50;;
77542;SDS011;66669;52.100;5.104;2023-02-28T15:01:47;2.28;;;0.47;;
77542;SDS011;66669;52.100;5.104;2023-02-28T15:04:21;0.88;;;0.40;;
77542;SDS011;66669;52.100;5.104;2023-02-28T15:07:08;1.80;;;0.40;;
77542;SDS011;66669;52.100;5.104;2023-02-28T15:09:39;1.23;;;0.50;;
77542;SDS011;66669;52.100;5.104;2023-02-28T15:12:06;1.13;;;0.50;;
77542;SDS011;66669;52.100;5.104;2023-02-28T15:14:42;1.00;;;0.35;;
77542;SDS011;66669;52.100;5.104;2023-02-28T15:17:11;1.83;;;0.40;;
77542;SDS011;66669;52.100;5.104;2023-02-28T15:19:48;0.85;;;0.38;;
77542;SDS011;66669;52.100;5.104;2023-02-28T15:22:16;1.83;;;0.45;;
77542;SDS011;66669;52.100;5.104;2023-02-28T15:24:49;1.77;;;0.60;;
77542;SDS011;66669;52.100;5.104;2023-02-28T15:27:27;0.55;;;0.30;;
77542;SDS011;66669;52.100;5.104;2023-02-28T15:29:58;0.88;;;0.40;;
77542;SDS011;66669;52.100;5.104;2023-02-28T15:34:55;0.60;;;0.30;;
77542;SDS011;66669;52.100;5.104;2023-02-28T15:40:10;1.15;;;0.40;;
77542;SDS011;66669;52.100;5.104;2023-02-28T15:42:39;1.23;;;0.40;;
77542;SDS011;66669;52.100;5.104;2023-02-28T15:45:04;0.70;;;0.43;;
77542;SDS011;66669;52.100;5.104;2023-02-28T15:47:30;0.82;;;0.47;;
77542;SDS011;66669;52.100;5.104;2023-02-28T15:52:27;1.60;;;0.40;;
77542;SDS011;66669;52.100;5.104;2023-02-28T15:54:58;0.65;;;0.40;;
77542;SDS011;66669;52.100;5.104;2023-02-28T15:57:31;1.52;;;0.55;;
77542;SDS011;66669;52.100;5.104;2023-02-28T15:59:58;0.68;;;0.30;;
77542;SDS011;66669;52.100;5.104;2023-02-28T16:02:33;0.65;;;0.32;;
77542;SDS011;66669;52.100;5.104;2023-02-28T16:05:01;0.73;;;0.47;;
77542;SDS011;66669;52.100;5.104;2023-02-28T16:07:27;0.73;;;0.40;;
77542;SDS011;66669;52.100;5.104;2023-02-28T16:09:53;1.08;;;0.40;;
77542;SDS011;66669;52.100;5.104;2023-02-28T16:12:19;1.85;;;0.35;;
77542;SDS011;66669;52.100;5.104;2023-02-28T16:14:50;1.73;;;0.50;;
77542;SDS011;66669;52.100;5.104;2023-02-28T16:17:22;1.08;;;0.40;;
77542;SDS011;66669;52.100;5.104;2023-02-28T16:19:50;0.85;;;0.40;;
77542;SDS011;66669;52.100;5.104;2023-02-28T16:22:15;1.10;;;0.50;;
77542;SDS011;66669;52.100;5.104;2023-02-28T16:24:41;1.13;;;0.45;;
77542;SDS011;66669;52.100;5.104;2023-02-28T16:27:06;0.85;;;0.40;;
77542;SDS011;66669;52.100;5.104;2023-02-28T16:29:46;1.25;;;0.40;;
77542;SDS011;66669;52.100;5.104;2023-02-28T16:32:14;1.67;;;0.47;;
77542;SDS011;66669;52.100;5.104;2023-02-28T16:34:40;0.80;;;0.40;;
77542;SDS011;66669;52.100;5.104;2023-02-28T16:37:10;0.90;;;0.30;;
77542;SDS011;66669;52.100;5.104;2023-02-28T16:39:38;0.88;;;0.50;;
77542;SDS011;66669;52.100;5.104;2023-02-28T16:42:03;1.33;;;0.50;;
77542;SDS011;66669;52.100;5.104;2023-02-28T16:44:30;1.55;;;0.60;;
77542;SDS011;66669;52.100;5.104;2023-02-28T16:47:00;2.30;;;0.45;;
77542;SDS011;66669;52.100;5.104;2023-02-28T16:49:26;3.08;;;0.60;;
77542;SDS011;66669;52.100;5.104;2023-02-28T16:51:52;6.63;;;0.45;;
77542;SDS011;66669;52.100;5.104;2023-02-28T16:54:17;1.75;;;0.60;;
77542;SDS011;66669;52.100;5.104;2023-02-28T16:56:44;2.00;;;0.50;;
77542;SDS011;66669;52.100;5.104;2023-02-28T16:59:11;1.58;;;0.40;;
77542;SDS011;66669;52.100;5.104;2023-02-28T17:01:36;7.10;;;0.60;;
77542;SDS011;66669;52.100;5.104;2023-02-28T17:04:02;3.33;;;0.50;;
77542;SDS011;66669;52.100;5.104;2023-02-28T17:06:28;3.65;;;0.60;;
77542;SDS011;66669;52.100;5.104;2023-02-28T17:08:55;0.80;;;0.40;;
77542;SDS011;66669;52.100;5.104;2023-02-28T17:11:21;1.65;;;0.50;;
77542;SDS011;66669;52.100;5.104;2023-02-28T17:13:47;1.30;;;0.55;;
77542;SDS011;66669;52.100;5.104;2023-02-28T17:16:29;1.42;;;0.50;;
77542;SDS011;66669;52.100;5.104;2023-02-28T17:18:58;2.95;;;0.68;;
77542;SDS011;66669;52.100;5.104;2023-02-28T17:21:25;2.45;;;0.60;;
77542;SDS011;66669;52.100;5.104;2023-02-28T17:23:51;2.72;;;0.65;;
77542;SDS011;66669;52.100;5.104;2023-02-28T17:26:18;2.58;;;0.60;;
77542;SDS011;66669;52.100;5.104;2023-02-28T17:28:45;1.40;;;0.50;;
77542;SDS011;66669;52.100;5.104;2023-02-28T17:31:14;0.73;;;0.40;;
77542;SDS011;66669;52.100;5.104;2023-02-28T17:33:40;1.02;;;0.50;;
77542;SDS011;66669;52.100;5.104;2023-02-28T17:36:06;1.17;;;0.50;;
77542;SDS011;66669;52.100;5.104;2023-02-28T17:38:35;1.30;;;0.50;;
77542;SDS011;66669;52.100;5.104;2023-02-28T17:41:00;1.08;;;0.50;;
77542;SDS011;66669;52.100;5.104;2023-02-28T17:43:26;1.60;;;0.50;;